Terminal Aerodrome Forecast
Issued by NWS

Home | Current Version | Previous Version | Graphics & Text | Print | Product List | Glossary On
Versions: 1 2 3 4 5 6 7 8 9 10 11 12 13 14 15 16 17 18
206
FTUS43 KOAX 281538 AAC
TAFCDR
TAF AMD
KCDR 281538Z 2816/2912 06011KT 1/2SM SN FG BKN005 OVC012
      TEMPO 2816/2818 2SM -SN BR SCT008 OVC015
     FM281800 05011KT P6SM VCSH BKN015 OVC025
     FM290100 04004KT P6SM VCSH OVC040=

USA.gov is the U.S. government's official web portal to all federal, state and local government web resources and services.